createdAt,value
2022-11-16T00:00:34.734Z,7.10
2022-11-16T00:03:36.287Z,7.12
2022-11-16T00:06:37.895Z,7.14
2022-11-16T00:09:39.492Z,7.16
2022-11-16T00:12:41.017Z,7.18
2022-11-16T00:15:42.532Z,7.19
2022-11-16T00:18:44.932Z,7.20
2022-11-16T00:21:46.573Z,7.22
2022-11-16T00:24:48.070Z,7.24
2022-11-16T00:27:49.577Z,7.23
2022-11-16T00:30:59.147Z,7.23
2022-11-16T00:34:00.710Z,7.22
2022-11-16T00:37:02.240Z,7.23
2022-11-16T00:40:04.179Z,7.24
2022-11-16T00:43:05.704Z,7.22
2022-11-16T00:46:07.310Z,7.20
2022-11-16T00:49:09.635Z,7.21
2022-11-16T00:52:11.332Z,7.23
2022-11-16T00:55:12.850Z,7.21
2022-11-16T00:58:15.157Z,7.19
2022-11-16T01:01:19.509Z,7.19
2022-11-16T01:04:21.152Z,7.13
2022-11-16T01:07:22.752Z,7.22
2022-11-16T01:10:26.822Z,7.22
2022-11-16T01:13:28.376Z,7.22
2022-11-16T01:16:29.985Z,7.22
2022-11-16T01:19:32.024Z,7.19
2022-11-16T01:22:37.573Z,7.19
2022-11-16T01:25:39.120Z,7.18
2022-11-16T01:28:40.650Z,7.17
2022-11-16T01:31:42.864Z,7.16
2022-11-16T01:34:44.453Z,7.18
2022-11-16T01:37:57.350Z,7.15
2022-11-16T01:40:59.121Z,7.17
2022-11-16T01:44:06.555Z,7.16
2022-11-16T01:47:17.882Z,7.16
2022-11-16T01:50:20.963Z,7.18
2022-11-16T01:53:26.135Z,7.16
2022-11-16T01:56:32.814Z,7.18
2022-11-16T01:59:45.799Z,7.19
2022-11-16T02:02:52.104Z,7.18
2022-11-16T02:06:32.832Z,7.16
2022-11-16T02:10:05.896Z,7.15
2022-11-16T02:13:28.531Z,7.12
2022-11-16T02:16:48.365Z,7.12
2022-11-16T02:20:24.366Z,7.12
2022-11-16T02:23:50.187Z,7.09
2022-11-16T02:27:27.087Z,7.09
2022-11-16T02:30:29.620Z,7.09
2022-11-16T02:33:36.336Z,7.06
2022-11-16T02:36:42.162Z,7.06
2022-11-16T02:39:47.299Z,7.05
2022-11-16T02:43:04.927Z,7.04
2022-11-16T02:46:16.033Z,7.05
2022-11-16T02:49:19.624Z,7.05
2022-11-16T02:52:23.044Z,7.07
2022-11-16T02:55:27.382Z,7.06
2022-11-16T02:58:30.051Z,7.04
2022-11-16T03:01:37.023Z,7.04
2022-11-16T03:04:47.290Z,7.04
2022-11-16T03:07:55.164Z,7.03
2022-11-16T03:11:23.984Z,7.02
2022-11-16T03:14:43.948Z,7.04
2022-11-16T03:17:50.158Z,7.04
2022-11-16T03:21:04.938Z,7.04
2022-11-16T03:24:07.607Z,7.03
2022-11-16T03:27:36.089Z,7.00
2022-11-16T03:30:43.572Z,7.01
2022-11-16T03:33:53.976Z,7.01
2022-11-16T03:37:00.345Z,7.01
2022-11-16T03:40:04.627Z,7.02
2022-11-16T03:43:08.571Z,7.02
2022-11-16T03:46:10.440Z,7.02
2022-11-16T03:49:12.276Z,7.02
2022-11-16T03:52:17.671Z,7.01
2022-11-16T03:55:19.819Z,6.99
2022-11-16T03:58:21.894Z,6.98
2022-11-16T04:01:23.543Z,6.98
2022-11-16T04:04:44.546Z,6.95
2022-11-16T04:08:07.029Z,6.97
2022-11-16T04:11:37.988Z,6.99
2022-11-16T04:14:58.765Z,6.98
2022-11-16T04:18:22.020Z,6.97
2022-11-16T04:21:47.520Z,6.98
2022-11-16T04:24:56.204Z,6.96
2022-11-16T04:28:14.224Z,6.98
2022-11-16T04:31:38.879Z,7.00
2022-11-16T04:35:04.020Z,7.01
2022-11-16T04:38:05.665Z,6.99
2022-11-16T04:41:29.536Z,7.02
2022-11-16T04:44:54.215Z,7.02
2022-11-16T04:47:58.629Z,7.05
2022-11-16T04:51:05.005Z,7.03
2022-11-16T04:54:07.899Z,7.05
2022-11-16T04:57:09.460Z,7.04
2022-11-16T05:00:11.760Z,7.04
2022-11-16T05:03:14.675Z,7.05
2022-11-16T05:06:19.321Z,7.07
2022-11-16T05:09:21.149Z,7.05
2022-11-16T05:12:25.192Z,7.06
2022-11-16T05:15:30.913Z,7.06
2022-11-16T05:18:34.468Z,7.06
2022-11-16T05:21:37.140Z,7.05
2022-11-16T05:24:38.920Z,7.06
2022-11-16T05:27:41.242Z,7.05
2022-11-16T05:30:45.748Z,7.01
2022-11-16T05:33:52.139Z,7.01
2022-11-16T05:36:54.990Z,6.98
2022-11-16T05:39:57.074Z,6.98
2022-11-16T05:43:07.403Z,6.95
2022-11-16T05:46:14.622Z,6.97
2022-11-16T05:49:16.566Z,6.96
2022-11-16T05:52:19.154Z,6.93
2022-11-16T05:55:20.941Z,6.97
2022-11-16T05:58:23.311Z,6.98
2022-11-16T06:01:26.498Z,7.00
2022-11-16T06:04:28.270Z,7.00
2022-11-16T06:07:30.209Z,7.01
2022-11-16T06:10:33.321Z,7.01
2022-11-16T06:13:35.978Z,7.03
2022-11-16T06:16:37.841Z,7.00
2022-11-16T06:19:42.470Z,7.07
2022-11-16T06:22:44.043Z,7.09
2022-11-16T06:25:46.489Z,7.10
2022-11-16T06:28:48.325Z,7.08
2022-11-16T06:31:50.101Z,7.07
2022-11-16T06:34:51.916Z,7.11
2022-11-16T06:37:53.638Z,7.09
2022-11-16T06:44:20.549Z,7.14
2022-11-16T06:47:30.459Z,7.16
2022-11-16T06:50:32.770Z,7.17
2022-11-16T06:53:34.502Z,7.19
2022-11-16T06:56:37.083Z,7.20
2022-11-16T06:59:38.712Z,7.20
2022-11-16T07:02:40.599Z,7.21
2022-11-16T07:05:45.786Z,7.22
2022-11-16T07:08:51.126Z,7.24
2022-11-16T07:11:58.423Z,7.24
2022-11-16T07:15:00.059Z,7.29
2022-11-16T07:18:07.949Z,7.29
2022-11-16T07:21:14.726Z,7.32
2022-11-16T07:24:17.089Z,7.42
2022-11-16T07:27:18.693Z,7.45
2022-11-16T07:30:23.886Z,7.49
2022-11-16T07:33:35.117Z,7.52
2022-11-16T07:36:59.696Z,7.56
2022-11-16T07:40:02.042Z,7.58
2022-11-16T07:43:05.325Z,7.60
2022-11-16T07:49:49.350Z,7.73
2022-11-16T07:52:55.802Z,7.81
2022-11-16T07:55:57.989Z,7.86
2022-11-16T07:59:01.568Z,7.90
2022-11-16T08:02:10.252Z,7.93
2022-11-16T08:05:13.926Z,7.95
2022-11-16T08:08:16.391Z,8.00
2022-11-16T08:11:18.121Z,8.01
2022-11-16T08:14:19.838Z,8.04
2022-11-16T08:17:24.159Z,8.07
2022-11-16T08:20:27.510Z,8.14
2022-11-16T08:23:30.496Z,8.18
2022-11-16T08:26:33.143Z,8.23
2022-11-16T08:29:40.779Z,8.29
2022-11-16T08:32:45.496Z,8.32
2022-11-16T08:35:48.483Z,8.37
2022-11-16T08:38:51.154Z,8.40
2022-11-16T08:41:54.050Z,8.45
2022-11-16T08:44:55.746Z,8.50
2022-11-16T08:48:03.354Z,8.55
2022-11-16T08:51:17.972Z,8.56
2022-11-16T08:54:28.091Z,8.55
2022-11-16T08:57:29.968Z,8.67
2022-11-16T09:00:34.809Z,8.71
2022-11-16T09:03:37.971Z,8.74
2022-11-16T09:06:39.520Z,8.76
2022-11-16T09:09:41.031Z,8.82
2022-11-16T09:12:42.817Z,8.86
2022-11-16T09:15:44.944Z,8.90
2022-11-16T09:18:48.307Z,8.93
2022-11-16T09:21:50.412Z,8.95
2022-11-16T09:24:51.948Z,8.91
2022-11-16T09:27:55.511Z,9.00
2022-11-16T09:31:01.978Z,9.01
2022-11-16T09:34:03.767Z,9.02
2022-11-16T09:37:05.330Z,9.02
2022-11-16T09:40:07.579Z,9.05
2022-11-16T09:43:28.047Z,9.07
2022-11-16T09:46:35.751Z,9.11
2022-11-16T09:49:47.462Z,9.12
2022-11-16T09:52:51.395Z,9.17
2022-11-16T09:55:56.521Z,9.21
2022-11-16T09:59:27.618Z,9.27
2022-11-16T10:02:43.189Z,9.33
2022-11-16T10:06:01.214Z,9.38
2022-11-16T10:09:02.947Z,9.43
2022-11-16T10:12:21.120Z,9.48
2022-11-16T10:15:56.793Z,9.53
2022-11-16T10:19:53.871Z,9.58
2022-11-16T10:23:11.515Z,9.62
2022-11-16T10:26:32.067Z,9.67
2022-11-16T10:29:55.970Z,9.70
2022-11-16T10:33:08.060Z,9.76
2022-11-16T10:36:15.894Z,9.82
2022-11-16T10:39:20.419Z,9.87
2022-11-16T10:42:34.851Z,9.93
2022-11-16T10:45:43.049Z,9.95
2022-11-16T10:49:16.395Z,10.05
2022-11-16T10:52:18.168Z,10.11
2022-11-16T10:55:21.698Z,10.18
2022-11-16T10:58:23.211Z,10.23
2022-11-16T11:01:27.783Z,10.27
2022-11-16T11:04:32.767Z,10.34
2022-11-16T11:07:38.121Z,10.38
2022-11-16T11:10:42.832Z,10.41
2022-11-16T11:13:44.396Z,10.45
2022-11-16T11:16:45.931Z,10.47
2022-11-16T11:20:16.202Z,10.46
2022-11-16T11:23:19.987Z,10.55
2022-11-16T11:26:35.941Z,10.59
2022-11-16T11:29:42.345Z,10.59
2022-11-16T11:32:44.915Z,10.61
2022-11-16T11:36:06.556Z,10.61
2022-11-16T11:39:28.839Z,10.64
2022-11-16T11:42:30.674Z,10.65
2022-11-16T11:45:45.322Z,10.68
2022-11-16T11:48:55.226Z,10.70
2022-11-16T11:52:03.257Z,10.72
2022-11-16T11:55:07.513Z,10.74
2022-11-16T11:58:18.205Z,10.76
2022-11-16T12:01:28.840Z,10.80
2022-11-16T12:04:58.275Z,10.86
2022-11-16T12:08:02.548Z,10.91
2022-11-16T12:11:39.375Z,10.98
2022-11-16T12:15:13.527Z,11.06
2022-11-16T12:18:14.992Z,11.18
2022-11-16T12:21:19.248Z,11.26
2022-11-16T12:24:47.049Z,11.33
2022-11-16T12:28:09.654Z,11.39
2022-11-16T12:31:48.243Z,11.47
2022-11-16T12:35:44.016Z,11.52
2022-11-16T12:39:09.071Z,11.54
2022-11-16T12:42:29.184Z,11.62
2022-11-16T12:45:52.604Z,11.62
2022-11-16T12:49:24.245Z,11.61
2022-11-16T12:53:23.033Z,11.54
2022-11-16T12:56:34.240Z,11.49
2022-11-16T13:00:01.624Z,11.45
2022-11-16T13:03:12.073Z,11.40
2022-11-16T13:06:20.183Z,11.30
2022-11-16T13:09:26.441Z,11.26
2022-11-16T13:12:30.456Z,11.21
2022-11-16T13:15:35.896Z,11.19
2022-11-16T13:18:41.532Z,11.11
2022-11-16T13:22:02.646Z,11.06
2022-11-16T13:25:17.454Z,11.03
2022-11-16T13:28:37.929Z,11.02
2022-11-16T13:31:53.477Z,10.95
2022-11-16T13:34:57.197Z,10.96
2022-11-16T13:37:58.727Z,10.94
2022-11-16T13:41:31.362Z,10.93
2022-11-16T13:44:33.560Z,10.88
2022-11-16T13:47:37.062Z,10.83
2022-11-16T13:50:38.899Z,10.82
2022-11-16T13:54:43.331Z,10.80
2022-11-16T13:57:24.635Z,10.78
2022-11-16T14:00:35.743Z,10.79
2022-11-16T14:03:39.495Z,10.76
2022-11-16T14:06:43.808Z,10.74
2022-11-16T14:09:48.343Z,10.71
2022-11-16T14:12:56.644Z,10.72
2022-11-16T14:16:19.441Z,10.69
2022-11-16T14:19:49.238Z,10.62
2022-11-16T14:22:58.150Z,10.57
2022-11-16T14:26:02.464Z,10.53
2022-11-16T14:29:27.325Z,10.50
2022-11-16T14:32:43.354Z,10.43
2022-11-16T14:35:52.525Z,10.41
2022-11-16T14:38:54.156Z,10.39
2022-11-16T14:42:00.570Z,10.38
2022-11-16T14:45:11.790Z,10.36
2022-11-16T14:48:17.031Z,10.36
2022-11-16T14:51:24.625Z,10.33
2022-11-16T14:54:26.549Z,10.32
2022-11-16T14:57:28.523Z,10.31
2022-11-16T15:00:30.420Z,10.31
2022-11-16T15:03:38.939Z,10.29
2022-11-16T15:06:47.061Z,10.28
2022-11-16T15:09:52.397Z,10.25
2022-11-16T15:12:55.698Z,10.19
2022-11-16T15:16:15.674Z,10.12
2022-11-16T15:19:17.236Z,10.03
2022-11-16T15:22:19.115Z,9.96
2022-11-16T15:25:26.836Z,9.88
2022-11-16T15:28:31.639Z,9.77
2022-11-16T15:31:34.416Z,9.68
2022-11-16T15:34:39.200Z,9.58
2022-11-16T15:37:40.741Z,9.48
2022-11-16T15:41:05.547Z,9.37
2022-11-16T15:44:14.482Z,9.26
2022-11-16T15:47:17.176Z,9.15
2022-11-16T15:50:19.371Z,9.06
2022-11-16T15:53:39.412Z,8.95
2022-11-16T15:56:41.670Z,8.86
2022-11-16T15:59:48.676Z,8.77
2022-11-16T16:02:51.460Z,8.70
2022-11-16T16:05:54.562Z,8.62
2022-11-16T16:09:06.245Z,8.54
2022-11-16T16:12:22.426Z,8.46
2022-11-16T16:15:36.664Z,8.39
2022-11-16T16:18:45.473Z,8.35
2022-11-16T16:21:47.121Z,8.31
2022-11-16T16:24:48.653Z,8.27
2022-11-16T16:27:50.269Z,8.15
2022-11-16T16:30:52.405Z,8.21
2022-11-16T16:33:55.556Z,8.16
2022-11-16T16:36:57.229Z,8.13
2022-11-16T16:39:58.871Z,8.08
2022-11-16T16:43:00.398Z,8.02
2022-11-16T16:46:03.237Z,7.96
2022-11-16T16:49:04.744Z,7.92
2022-11-16T16:52:07.456Z,7.84
2022-11-16T16:55:09.112Z,7.80
2022-11-16T16:58:13.128Z,7.75
2022-11-16T17:01:14.754Z,7.65
2022-11-16T17:04:16.352Z,7.66
2022-11-16T17:07:18.026Z,7.61
2022-11-16T17:10:19.612Z,7.52
2022-11-16T17:13:21.115Z,7.53
2022-11-16T17:16:23.126Z,7.50
2022-11-16T17:19:24.781Z,7.40
2022-11-16T17:22:26.296Z,7.40
2022-11-16T17:25:27.946Z,7.34
2022-11-16T17:28:29.494Z,7.29
2022-11-16T17:31:31.183Z,7.25
2022-11-16T17:34:33.845Z,7.10
2022-11-16T17:37:35.382Z,7.11
2022-11-16T17:40:37.020Z,7.03
2022-11-16T17:43:39.091Z,6.97
2022-11-16T17:46:40.611Z,6.90
2022-11-16T17:49:42.259Z,6.86
2022-11-16T17:52:43.805Z,6.81
2022-11-16T17:55:45.344Z,6.76
2022-11-16T17:58:47.243Z,6.70
2022-11-16T18:01:49.534Z,6.63
2022-11-16T18:04:51.567Z,6.57
2022-11-16T18:07:53.205Z,6.44
2022-11-16T18:10:54.769Z,6.44
2022-11-16T18:14:00.367Z,6.38
2022-11-16T18:17:01.930Z,6.33
2022-11-16T18:20:04.785Z,6.22
2022-11-16T18:23:06.312Z,6.24
2022-11-16T18:26:13.705Z,6.17
2022-11-16T18:29:18.531Z,6.14
2022-11-16T18:32:20.117Z,6.10
2022-11-16T18:35:21.687Z,6.06
2022-11-16T18:38:23.281Z,6.04
2022-11-16T18:41:27.063Z,6.01
2022-11-16T18:44:28.581Z,5.97
2022-11-16T18:47:30.175Z,5.93
2022-11-16T18:50:31.704Z,5.88
2022-11-16T18:53:33.842Z,5.84
2022-11-16T18:56:36.231Z,5.80
2022-11-16T18:59:38.122Z,5.74
2022-11-16T19:02:39.624Z,5.71
2022-11-16T19:05:41.379Z,5.63
2022-11-16T19:08:43.484Z,5.57
2022-11-16T19:11:45.185Z,5.49
2022-11-16T19:14:46.708Z,5.47
2022-11-16T19:18:19.449Z,5.42
2022-11-16T19:21:14.772Z,5.34
2022-11-16T19:24:16.361Z,5.31
2022-11-16T19:27:17.855Z,5.25
2022-11-16T19:30:19.725Z,5.20
2022-11-16T19:33:21.344Z,5.14
2022-11-16T19:36:24.159Z,5.09
2022-11-16T19:39:26.561Z,5.06
2022-11-16T19:42:28.296Z,5.04
2022-11-16T19:45:29.863Z,4.99
2022-11-16T19:48:34.753Z,4.86
2022-11-16T19:51:36.383Z,4.92
2022-11-16T19:54:37.911Z,4.88
2022-11-16T19:57:39.439Z,4.84
2022-11-16T20:00:40.997Z,4.82
2022-11-16T20:03:42.740Z,4.81
2022-11-16T20:06:44.313Z,4.77
2022-11-16T20:09:50.540Z,4.75
2022-11-16T20:12:56.661Z,4.76
2022-11-16T20:16:01.249Z,4.72
2022-11-16T20:19:03.668Z,4.70
2022-11-16T20:22:05.220Z,4.67
2022-11-16T20:25:06.993Z,4.64
2022-11-16T20:28:09.498Z,4.64
2022-11-16T20:31:16.704Z,4.60
2022-11-16T20:34:20.264Z,4.56
2022-11-16T20:37:21.888Z,4.53
2022-11-16T20:40:23.468Z,4.51
2022-11-16T20:43:24.977Z,4.47
2022-11-16T20:46:29.231Z,4.42
2022-11-16T20:49:30.814Z,4.38
2022-11-16T20:52:32.320Z,4.36
2022-11-16T20:55:33.873Z,4.32
2022-11-16T20:58:35.561Z,4.29
2022-11-16T21:01:37.351Z,4.28
2022-11-16T21:04:38.940Z,4.25
2022-11-16T21:07:41.742Z,4.25
2022-11-16T21:10:44.079Z,4.23
2022-11-16T21:14:05.900Z,4.22
2022-11-16T21:17:07.462Z,4.19
2022-11-16T21:20:26.457Z,4.15
2022-11-16T21:23:31.769Z,4.10
2022-11-16T21:26:34.044Z,4.06
2022-11-16T21:29:35.543Z,4.02
2022-11-16T21:32:37.043Z,3.99
2022-11-16T21:35:38.577Z,3.96
2022-11-16T21:38:40.411Z,3.91
2022-11-16T21:41:41.960Z,3.88
2022-11-16T21:44:43.517Z,3.84
2022-11-16T21:47:45.057Z,3.80
2022-11-16T21:50:46.845Z,3.74
2022-11-16T21:53:48.726Z,3.74
2022-11-16T21:56:50.211Z,3.69
2022-11-16T21:59:51.728Z,3.66
2022-11-16T22:02:53.691Z,3.64
2022-11-16T22:06:14.737Z,3.63
2022-11-16T22:09:16.823Z,3.59
2022-11-16T22:12:18.310Z,3.58
2022-11-16T22:15:19.829Z,3.54
2022-11-16T22:18:21.345Z,3.53
2022-11-16T22:21:22.870Z,3.51
2022-11-16T22:24:24.374Z,3.47
2022-11-16T22:27:25.943Z,3.44
2022-11-16T22:30:27.528Z,3.41
2022-11-16T22:33:29.995Z,3.39
2022-11-16T22:36:31.512Z,3.38
2022-11-16T22:39:33.075Z,3.35
2022-11-16T22:42:34.589Z,3.29
2022-11-16T22:45:36.123Z,3.30
2022-11-16T22:48:39.658Z,3.28
2022-11-16T22:51:41.178Z,3.28
2022-11-16T22:54:42.691Z,3.24
2022-11-16T22:57:44.194Z,3.21
2022-11-16T23:00:45.691Z,3.19
2022-11-16T23:03:47.784Z,3.12
2022-11-16T23:06:49.519Z,3.12
2022-11-16T23:09:51.133Z,3.06
2022-11-16T23:13:11.902Z,3.05
2022-11-16T23:16:13.412Z,2.97
2022-11-16T23:19:35.979Z,2.99
2022-11-16T23:22:56.384Z,2.92
2022-11-16T23:26:16.393Z,2.91
2022-11-16T23:29:17.937Z,2.84
2022-11-16T23:32:19.438Z,2.81
2022-11-16T23:35:21.403Z,2.79
2022-11-16T23:38:22.918Z,2.78
2022-11-16T23:41:43.175Z,2.74
2022-11-16T23:44:44.711Z,2.72
2022-11-16T23:47:46.239Z,2.69
2022-11-16T23:50:47.895Z,2.66
2022-11-16T23:53:53.320Z,2.63
2022-11-16T23:56:54.917Z,2.65
2022-11-16T23:59:56.443Z,2.64
